sensor_id;sensor_type;location;lat;lon;timestamp;temperature;humidity
19652;DHT22;9974;52.146;14.668;2023-07-20T00:00:45;17.10;99.90
19652;DHT22;9974;52.146;14.668;2023-07-20T00:03:13;16.40;99.90
19652;DHT22;9974;52.146;14.668;2023-07-20T00:05:43;16.70;99.90
19652;DHT22;9974;52.146;14.668;2023-07-20T00:08:09;16.50;99.90
19652;DHT22;9974;52.146;14.668;2023-07-20T00:10:35;17.10;99.90
19652;DHT22;9974;52.146;14.668;2023-07-20T00:15:26;17.30;99.90
19652;DHT22;9974;52.146;14.668;2023-07-20T00:17:52;17.50;99.90
19652;DHT22;9974;52.146;14.668;2023-07-20T00:20:18;17.30;99.90
19652;DHT22;9974;52.146;14.668;2023-07-20T00:22:43;17.50;99.90
19652;DHT22;9974;52.146;14.668;2023-07-20T00:27:37;16.60;99.90
19652;DHT22;9974;52.146;14.668;2023-07-20T00:30:04;17.40;99.90
19652;DHT22;9974;52.146;14.668;2023-07-20T00:32:30;17.10;99.90
19652;DHT22;9974;52.146;14.668;2023-07-20T00:37:22;17.20;99.90
19652;DHT22;9974;52.146;14.668;2023-07-20T00:39:47;17.20;99.90
19652;DHT22;9974;52.146;14.668;2023-07-20T00:42:13;17.10;99.90
19652;DHT22;9974;52.146;14.668;2023-07-20T00:44:39;17.50;99.90
19652;DHT22;9974;52.146;14.668;2023-07-20T00:47:05;17.00;99.90
19652;DHT22;9974;52.146;14.668;2023-07-20T00:49:31;17.00;99.90
19652;DHT22;9974;52.146;14.668;2023-07-20T00:52:00;16.40;99.90
19652;DHT22;9974;52.146;14.668;2023-07-20T00:54:27;17.20;99.90
19652;DHT22;9974;52.146;14.668;2023-07-20T00:56:54;17.10;99.90
19652;DHT22;9974;52.146;14.668;2023-07-20T00:59:20;16.70;99.90
19652;DHT22;9974;52.146;14.668;2023-07-20T01:01:46;17.20;99.90
19652;DHT22;9974;52.146;14.668;2023-07-20T01:04:12;16.50;99.90
19652;DHT22;9974;52.146;14.668;2023-07-20T01:12:05;16.80;99.90
19652;DHT22;9974;52.146;14.668;2023-07-20T01:14:34;17.00;99.90
19652;DHT22;9974;52.146;14.668;2023-07-20T01:17:00;16.40;99.90
19652;DHT22;9974;52.146;14.668;2023-07-20T01:19:26;16.20;99.90
19652;DHT22;9974;52.146;14.668;2023-07-20T01:22:21;17.00;99.90
19652;DHT22;9974;52.146;14.668;2023-07-20T01:31:27;16.30;99.90
19652;DHT22;9974;52.146;14.668;2023-07-20T01:33:57;16.90;99.90
19652;DHT22;9974;52.146;14.668;2023-07-20T01:36:26;16.60;99.90
19652;DHT22;9974;52.146;14.668;2023-07-20T01:38:52;16.60;99.90
19652;DHT22;9974;52.146;14.668;2023-07-20T01:43:45;16.20;99.90
19652;DHT22;9974;52.146;14.668;2023-07-20T01:46:11;15.90;99.90
19652;DHT22;9974;52.146;14.668;2023-07-20T01:51:02;16.10;99.90
19652;DHT22;9974;52.146;14.668;2023-07-20T01:55:54;16.60;99.90
19652;DHT22;9974;52.146;14.668;2023-07-20T01:58:20;16.60;99.90
19652;DHT22;9974;52.146;14.668;2023-07-20T02:00:46;16.00;99.90
19652;DHT22;9974;52.146;14.668;2023-07-20T02:03:12;16.30;99.90
19652;DHT22;9974;52.146;14.668;2023-07-20T02:05:38;16.60;99.90
19652;DHT22;9974;52.146;14.668;2023-07-20T02:08:03;16.20;99.90
19652;DHT22;9974;52.146;14.668;2023-07-20T02:10:29;15.70;99.90
19652;DHT22;9974;52.146;14.668;2023-07-20T02:12:55;15.90;99.90
19652;DHT22;9974;52.146;14.668;2023-07-20T02:15:20;15.90;99.90
19652;DHT22;9974;52.146;14.668;2023-07-20T02:17:46;15.90;99.90
19652;DHT22;9974;52.146;14.668;2023-07-20T02:20:12;15.90;99.90
19652;DHT22;9974;52.146;14.668;2023-07-20T02:22:39;15.70;99.90
19652;DHT22;9974;52.146;14.668;2023-07-20T02:25:05;15.50;99.90
19652;DHT22;9974;52.146;14.668;2023-07-20T02:27:32;16.00;99.90
19652;DHT22;9974;52.146;14.668;2023-07-20T02:29:59;15.40;99.90
19652;DHT22;9974;52.146;14.668;2023-07-20T02:32:24;15.80;99.90
19652;DHT22;9974;52.146;14.668;2023-07-20T02:39:42;15.60;99.90
19652;DHT22;9974;52.146;14.668;2023-07-20T02:44:34;15.80;99.90
19652;DHT22;9974;52.146;14.668;2023-07-20T02:49:26;15.90;99.90
19652;DHT22;9974;52.146;14.668;2023-07-20T02:51:52;15.50;99.90
19652;DHT22;9974;52.146;14.668;2023-07-20T02:54:18;15.50;99.90
19652;DHT22;9974;52.146;14.668;2023-07-20T02:56:44;15.80;99.90
19652;DHT22;9974;52.146;14.668;2023-07-20T02:59:09;15.70;99.90
19652;DHT22;9974;52.146;14.668;2023-07-20T03:01:35;15.70;99.90
19652;DHT22;9974;52.146;14.668;2023-07-20T03:04:01;15.50;99.90
19652;DHT22;9974;52.146;14.668;2023-07-20T03:06:27;15.50;99.90
19652;DHT22;9974;52.146;14.668;2023-07-20T03:08:53;16.10;99.90
19652;DHT22;9974;52.146;14.668;2023-07-20T03:11:20;16.40;99.90
19652;DHT22;9974;52.146;14.668;2023-07-20T03:13:46;15.60;99.90
19652;DHT22;9974;52.146;14.668;2023-07-20T03:16:13;15.50;99.90
19652;DHT22;9974;52.146;14.668;2023-07-20T03:18:41;16.20;99.90
19652;DHT22;9974;52.146;14.668;2023-07-20T03:21:08;15.40;99.90
19652;DHT22;9974;52.146;14.668;2023-07-20T03:23:36;15.40;99.90
19652;DHT22;9974;52.146;14.668;2023-07-20T03:26:02;15.60;99.90
19652;DHT22;9974;52.146;14.668;2023-07-20T03:28:28;15.70;99.90
19652;DHT22;9974;52.146;14.668;2023-07-20T03:30:57;15.70;99.90
19652;DHT22;9974;52.146;14.668;2023-07-20T03:33:25;16.30;99.90
19652;DHT22;9974;52.146;14.668;2023-07-20T03:35:52;16.10;99.90
19652;DHT22;9974;52.146;14.668;2023-07-20T03:38:19;16.30;99.90
19652;DHT22;9974;52.146;14.668;2023-07-20T03:40:59;16.10;99.90
19652;DHT22;9974;52.146;14.668;2023-07-20T03:43:27;16.00;99.90
19652;DHT22;9974;52.146;14.668;2023-07-20T03:45:54;16.30;99.90
19652;DHT22;9974;52.146;14.668;2023-07-20T03:48:22;15.80;99.90
19652;DHT22;9974;52.146;14.668;2023-07-20T03:50:50;15.70;99.90
19652;DHT22;9974;52.146;14.668;2023-07-20T03:53:17;16.10;99.90
19652;DHT22;9974;52.146;14.668;2023-07-20T03:55:47;16.20;99.90
19652;DHT22;9974;52.146;14.668;2023-07-20T03:58:14;16.40;99.90
19652;DHT22;9974;52.146;14.668;2023-07-20T04:00:42;16.10;99.90
19652;DHT22;9974;52.146;14.668;2023-07-20T04:03:09;16.20;99.90
19652;DHT22;9974;52.146;14.668;2023-07-20T04:05:35;15.90;99.90
19652;DHT22;9974;52.146;14.668;2023-07-20T04:08:01;15.70;99.90
19652;DHT22;9974;52.146;14.668;2023-07-20T04:12:52;15.60;99.90
19652;DHT22;9974;52.146;14.668;2023-07-20T04:15:18;16.60;99.90
19652;DHT22;9974;52.146;14.668;2023-07-20T04:17:45;15.70;99.90
19652;DHT22;9974;52.146;14.668;2023-07-20T04:20:11;16.60;99.90
19652;DHT22;9974;52.146;14.668;2023-07-20T04:22:37;16.60;99.90
19652;DHT22;9974;52.146;14.668;2023-07-20T04:25:03;16.20;99.90
19652;DHT22;9974;52.146;14.668;2023-07-20T04:27:29;15.80;99.90
19652;DHT22;9974;52.146;14.668;2023-07-20T04:29:57;15.90;99.90
19652;DHT22;9974;52.146;14.668;2023-07-20T04:32:25;15.90;99.90
19652;DHT22;9974;52.146;14.668;2023-07-20T04:34:51;16.40;99.90
19652;DHT22;9974;52.146;14.668;2023-07-20T04:39:43;15.90;99.90
19652;DHT22;9974;52.146;14.668;2023-07-20T04:44:34;17.00;99.90
19652;DHT22;9974;52.146;14.668;2023-07-20T04:47:00;16.00;99.90
19652;DHT22;9974;52.146;14.668;2023-07-20T04:51:52;16.30;99.90
19652;DHT22;9974;52.146;14.668;2023-07-20T04:54:18;16.80;99.90
19652;DHT22;9974;52.146;14.668;2023-07-20T04:56:44;16.20;99.90
19652;DHT22;9974;52.146;14.668;2023-07-20T04:59:10;16.60;99.90
19652;DHT22;9974;52.146;14.668;2023-07-20T05:01:35;16.90;99.90
19652;DHT22;9974;52.146;14.668;2023-07-20T05:04:02;16.60;99.90
19652;DHT22;9974;52.146;14.668;2023-07-20T05:06:27;16.60;99.90
19652;DHT22;9974;52.146;14.668;2023-07-20T05:08:53;17.20;99.90
19652;DHT22;9974;52.146;14.668;2023-07-20T05:13:45;16.60;99.90
19652;DHT22;9974;52.146;14.668;2023-07-20T05:16:11;17.00;99.90
19652;DHT22;9974;52.146;14.668;2023-07-20T05:18:36;16.60;99.90
19652;DHT22;9974;52.146;14.668;2023-07-20T05:25:58;17.30;99.90
19652;DHT22;9974;52.146;14.668;2023-07-20T05:33:19;17.00;99.90
19652;DHT22;9974;52.146;14.668;2023-07-20T05:40:41;17.10;99.90
19652;DHT22;9974;52.146;14.668;2023-07-20T05:48:03;17.40;99.90
19652;DHT22;9974;52.146;14.668;2023-07-20T05:50:28;16.60;99.90
19652;DHT22;9974;52.146;14.668;2023-07-20T05:57:47;17.20;99.90
19652;DHT22;9974;52.146;14.668;2023-07-20T06:00:14;17.20;99.90
19652;DHT22;9974;52.146;14.668;2023-07-20T06:02:39;17.10;99.90
19652;DHT22;9974;52.146;14.668;2023-07-20T06:05:06;17.20;99.90
19652;DHT22;9974;52.146;14.668;2023-07-20T06:07:36;17.50;99.90
19652;DHT22;9974;52.146;14.668;2023-07-20T06:10:02;17.30;99.90
19652;DHT22;9974;52.146;14.668;2023-07-20T06:17:20;17.10;99.90
19652;DHT22;9974;52.146;14.668;2023-07-20T06:19:46;16.70;99.90
19652;DHT22;9974;52.146;14.668;2023-07-20T06:27:04;16.70;99.90
19652;DHT22;9974;52.146;14.668;2023-07-20T06:29:31;16.80;99.90
19652;DHT22;9974;52.146;14.668;2023-07-20T06:34:22;16.80;99.90
19652;DHT22;9974;52.146;14.668;2023-07-20T06:39:14;16.80;99.90
19652;DHT22;9974;52.146;14.668;2023-07-20T06:41:40;17.20;99.90
19652;DHT22;9974;52.146;14.668;2023-07-20T07:01:09;17.20;99.90
19652;DHT22;9974;52.146;14.668;2023-07-20T07:06:02;17.30;99.90
19652;DHT22;9974;52.146;14.668;2023-07-20T07:08:28;17.50;99.90
19652;DHT22;9974;52.146;14.668;2023-07-20T07:10:54;18.60;99.90
19652;DHT22;9974;52.146;14.668;2023-07-20T07:13:20;17.80;99.90
19652;DHT22;9974;52.146;14.668;2023-07-20T07:18:11;18.40;99.90
19652;DHT22;9974;52.146;14.668;2023-07-20T07:23:03;18.40;99.90
19652;DHT22;9974;52.146;14.668;2023-07-20T07:25:29;18.00;99.90
19652;DHT22;9974;52.146;14.668;2023-07-20T07:30:22;18.50;99.90
19652;DHT22;9974;52.146;14.668;2023-07-20T07:35:14;18.20;99.90
19652;DHT22;9974;52.146;14.668;2023-07-20T07:40:06;18.20;99.90
19652;DHT22;9974;52.146;14.668;2023-07-20T07:42:33;18.70;99.90
19652;DHT22;9974;52.146;14.668;2023-07-20T07:47:25;18.10;99.90
19652;DHT22;9974;52.146;14.668;2023-07-20T07:52:16;18.50;99.90
19652;DHT22;9974;52.146;14.668;2023-07-20T07:54:42;18.70;99.90
19652;DHT22;9974;52.146;14.668;2023-07-20T07:57:08;18.80;99.90
19652;DHT22;9974;52.146;14.668;2023-07-20T07:59:33;19.20;99.90
19652;DHT22;9974;52.146;14.668;2023-07-20T08:02:04;18.90;99.90
19652;DHT22;9974;52.146;14.668;2023-07-20T08:06:56;18.80;99.90
19652;DHT22;9974;52.146;14.668;2023-07-20T08:16:41;19.20;99.90
19652;DHT22;9974;52.146;14.668;2023-07-20T08:23:59;19.50;99.90
19652;DHT22;9974;52.146;14.668;2023-07-20T08:26:24;19.20;99.90
19652;DHT22;9974;52.146;14.668;2023-07-20T08:28:50;19.80;99.90
19652;DHT22;9974;52.146;14.668;2023-07-20T08:33:42;19.60;99.90
19652;DHT22;9974;52.146;14.668;2023-07-20T08:36:08;19.00;99.90
19652;DHT22;9974;52.146;14.668;2023-07-20T08:41:00;19.20;99.90
19652;DHT22;9974;52.146;14.668;2023-07-20T08:43:27;19.60;99.90
19652;DHT22;9974;52.146;14.668;2023-07-20T08:45:54;19.90;99.90
19652;DHT22;9974;52.146;14.668;2023-07-20T08:48:21;20.00;99.90
19652;DHT22;9974;52.146;14.668;2023-07-20T08:50:51;20.30;99.90
19652;DHT22;9974;52.146;14.668;2023-07-20T08:53:18;20.40;99.90
19652;DHT22;9974;52.146;14.668;2023-07-20T09:00:41;19.90;99.90
19652;DHT22;9974;52.146;14.668;2023-07-20T09:03:07;20.00;99.90
19652;DHT22;9974;52.146;14.668;2023-07-20T09:08:00;21.10;99.90
19652;DHT22;9974;52.146;14.668;2023-07-20T09:15:22;20.30;99.90
19652;DHT22;9974;52.146;14.668;2023-07-20T09:17:51;19.90;99.90
19652;DHT22;9974;52.146;14.668;2023-07-20T09:20:19;20.40;99.90
19652;DHT22;9974;52.146;14.668;2023-07-20T09:22:45;19.80;99.90
19652;DHT22;9974;52.146;14.668;2023-07-20T09:25:16;20.70;99.90
19652;DHT22;9974;52.146;14.668;2023-07-20T09:27:44;20.50;99.90
19652;DHT22;9974;52.146;14.668;2023-07-20T09:30:11;20.70;99.90
19652;DHT22;9974;52.146;14.668;2023-07-20T09:32:44;20.50;99.90
19652;DHT22;9974;52.146;14.668;2023-07-20T09:35:17;20.40;99.90
19652;DHT22;9974;52.146;14.668;2023-07-20T09:38:00;20.30;99.90
19652;DHT22;9974;52.146;14.668;2023-07-20T09:40:27;20.50;99.90
19652;DHT22;9974;52.146;14.668;2023-07-20T09:42:53;20.20;99.90
19652;DHT22;9974;52.146;14.668;2023-07-20T09:45:57;20.50;99.90
19652;DHT22;9974;52.146;14.668;2023-07-20T09:48:24;20.70;99.90
19652;DHT22;9974;52.146;14.668;2023-07-20T09:50:51;21.30;99.90
19652;DHT22;9974;52.146;14.668;2023-07-20T09:53:18;21.90;99.90
19652;DHT22;9974;52.146;14.668;2023-07-20T09:55:45;21.70;99.90
19652;DHT22;9974;52.146;14.668;2023-07-20T10:00:40;22.30;99.90
19652;DHT22;9974;52.146;14.668;2023-07-20T10:03:10;21.70;99.90
19652;DHT22;9974;52.146;14.668;2023-07-20T10:05:43;22.30;99.90
19652;DHT22;9974;52.146;14.668;2023-07-20T10:08:15;22.30;99.90
19652;DHT22;9974;52.146;14.668;2023-07-20T10:10:42;22.10;99.90
19652;DHT22;9974;52.146;14.668;2023-07-20T10:13:17;22.00;99.90
19652;DHT22;9974;52.146;14.668;2023-07-20T10:18:18;22.40;99.90
19652;DHT22;9974;52.146;14.668;2023-07-20T10:20:55;22.20;99.90
19652;DHT22;9974;52.146;14.668;2023-07-20T10:23:22;22.50;99.90
19652;DHT22;9974;52.146;14.668;2023-07-20T10:25:50;22.60;99.90
19652;DHT22;9974;52.146;14.668;2023-07-20T10:28:16;22.70;99.90
19652;DHT22;9974;52.146;14.668;2023-07-20T10:30:42;22.40;99.90
19652;DHT22;9974;52.146;14.668;2023-07-20T10:33:08;22.20;99.90
19652;DHT22;9974;52.146;14.668;2023-07-20T10:36:02;21.60;99.90
19652;DHT22;9974;52.146;14.668;2023-07-20T10:41:22;21.20;99.90
19652;DHT22;9974;52.146;14.668;2023-07-20T10:44:01;21.80;99.90
19652;DHT22;9974;52.146;14.668;2023-07-20T10:46:43;22.00;99.90
19652;DHT22;9974;52.146;14.668;2023-07-20T10:49:10;22.60;99.90
19652;DHT22;9974;52.146;14.668;2023-07-20T10:51:48;22.90;99.90
19652;DHT22;9974;52.146;14.668;2023-07-20T10:56:52;23.60;99.90
19652;DHT22;9974;52.146;14.668;2023-07-20T10:59:19;23.80;99.90
19652;DHT22;9974;52.146;14.668;2023-07-20T11:01:48;24.10;99.90
19652;DHT22;9974;52.146;14.668;2023-07-20T11:04:17;24.10;99.90
19652;DHT22;9974;52.146;14.668;2023-07-20T11:06:45;24.20;99.90
19652;DHT22;9974;52.146;14.668;2023-07-20T11:09:15;24.00;99.90
19652;DHT22;9974;52.146;14.668;2023-07-20T11:11:42;23.60;99.90
19652;DHT22;9974;52.146;14.668;2023-07-20T11:14:22;23.00;99.90
19652;DHT22;9974;52.146;14.668;2023-07-20T11:16:50;23.70;99.90
19652;DHT22;9974;52.146;14.668;2023-07-20T11:19:21;24.00;99.90
19652;DHT22;9974;52.146;14.668;2023-07-20T11:21:55;24.00;99.90
19652;DHT22;9974;52.146;14.668;2023-07-20T11:24:22;24.10;99.90
19652;DHT22;9974;52.146;14.668;2023-07-20T11:26:49;24.10;99.90
19652;DHT22;9974;52.146;14.668;2023-07-20T11:29:21;23.40;99.90
19652;DHT22;9974;52.146;14.668;2023-07-20T11:31:48;23.50;99.90
19652;DHT22;9974;52.146;14.668;2023-07-20T11:34:15;23.60;99.90
19652;DHT22;9974;52.146;14.668;2023-07-20T11:36:44;23.60;99.90
19652;DHT22;9974;52.146;14.668;2023-07-20T11:39:13;23.70;99.90
19652;DHT22;9974;52.146;14.668;2023-07-20T11:41:46;23.80;99.90
19652;DHT22;9974;52.146;14.668;2023-07-20T11:44:12;23.90;99.90
19652;DHT22;9974;52.146;14.668;2023-07-20T11:46:41;24.30;99.90
19652;DHT22;9974;52.146;14.668;2023-07-20T11:49:08;24.50;99.90
19652;DHT22;9974;52.146;14.668;2023-07-20T11:54:01;24.50;99.90
19652;DHT22;9974;52.146;14.668;2023-07-20T11:59:00;25.00;99.90
19652;DHT22;9974;52.146;14.668;2023-07-20T12:01:28;25.60;99.90
19652;DHT22;9974;52.146;14.668;2023-07-20T12:04:02;26.00;99.90
19652;DHT22;9974;52.146;14.668;2023-07-20T12:06:29;26.70;99.90
19652;DHT22;9974;52.146;14.668;2023-07-20T12:08:59;26.30;99.90
19652;DHT22;9974;52.146;14.668;2023-07-20T12:11:32;26.50;99.90
19652;DHT22;9974;52.146;14.668;2023-07-20T12:14:03;26.30;99.90
19652;DHT22;9974;52.146;14.668;2023-07-20T12:16:30;25.80;99.90
19652;DHT22;9974;52.146;14.668;2023-07-20T12:19:00;25.90;99.90
19652;DHT22;9974;52.146;14.668;2023-07-20T12:21:27;25.20;99.90
19652;DHT22;9974;52.146;14.668;2023-07-20T12:23:56;24.60;99.90
19652;DHT22;9974;52.146;14.668;2023-07-20T12:28:49;23.60;99.90
19652;DHT22;9974;52.146;14.668;2023-07-20T12:31:15;23.00;99.90
19652;DHT22;9974;52.146;14.668;2023-07-20T12:33:41;23.30;99.90
19652;DHT22;9974;52.146;14.668;2023-07-20T12:36:08;22.60;98.00
19652;DHT22;9974;52.146;14.668;2023-07-20T12:38:34;22.90;99.90
19652;DHT22;9974;52.146;14.668;2023-07-20T12:41:01;22.40;99.90
19652;DHT22;9974;52.146;14.668;2023-07-20T12:43:27;22.80;99.90
19652;DHT22;9974;52.146;14.668;2023-07-20T12:45:53;22.70;99.90
19652;DHT22;9974;52.146;14.668;2023-07-20T12:50:46;22.50;99.90
19652;DHT22;9974;52.146;14.668;2023-07-20T12:55:38;22.70;99.90
19652;DHT22;9974;52.146;14.668;2023-07-20T13:05:24;23.50;99.90
19652;DHT22;9974;52.146;14.668;2023-07-20T13:07:50;23.60;99.90
19652;DHT22;9974;52.146;14.668;2023-07-20T13:10:16;24.10;99.90
19652;DHT22;9974;52.146;14.668;2023-07-20T13:12:41;24.30;99.90
19652;DHT22;9974;52.146;14.668;2023-07-20T13:15:08;24.70;99.90
19652;DHT22;9974;52.146;14.668;2023-07-20T13:17:37;24.30;99.90
19652;DHT22;9974;52.146;14.668;2023-07-20T13:20:05;24.60;99.90
19652;DHT22;9974;52.146;14.668;2023-07-20T13:22:33;24.10;99.90
19652;DHT22;9974;52.146;14.668;2023-07-20T13:24:59;23.80;99.90
19652;DHT22;9974;52.146;14.668;2023-07-20T13:29:51;23.00;99.90
19652;DHT22;9974;52.146;14.668;2023-07-20T13:34:44;22.80;98.40
19652;DHT22;9974;52.146;14.668;2023-07-20T13:37:11;22.70;99.90
19652;DHT22;9974;52.146;14.668;2023-07-20T13:39:37;23.00;99.90
19652;DHT22;9974;52.146;14.668;2023-07-20T13:42:04;22.60;99.90
19652;DHT22;9974;52.146;14.668;2023-07-20T13:44:34;22.70;98.90
19652;DHT22;9974;52.146;14.668;2023-07-20T13:47:00;22.60;99.90
19652;DHT22;9974;52.146;14.668;2023-07-20T13:49:26;23.30;99.90
19652;DHT22;9974;52.146;14.668;2023-07-20T13:51:53;22.70;99.90
19652;DHT22;9974;52.146;14.668;2023-07-20T13:54:18;23.00;99.90
19652;DHT22;9974;52.146;14.668;2023-07-20T14:04:02;23.40;99.90
19652;DHT22;9974;52.146;14.668;2023-07-20T14:06:31;23.80;99.90
19652;DHT22;9974;52.146;14.668;2023-07-20T14:08:57;23.00;99.90
19652;DHT22;9974;52.146;14.668;2023-07-20T14:11:23;23.70;99.90
19652;DHT22;9974;52.146;14.668;2023-07-20T14:13:53;23.90;97.00
19652;DHT22;9974;52.146;14.668;2023-07-20T14:18:45;23.80;99.90
19652;DHT22;9974;52.146;14.668;2023-07-20T14:21:18;24.30;99.90
19652;DHT22;9974;52.146;14.668;2023-07-20T14:23:46;24.00;99.90
19652;DHT22;9974;52.146;14.668;2023-07-20T14:26:13;23.90;99.90
19652;DHT22;9974;52.146;14.668;2023-07-20T14:28:38;23.70;99.90
19652;DHT22;9974;52.146;14.668;2023-07-20T14:31:04;23.80;99.90
19652;DHT22;9974;52.146;14.668;2023-07-20T14:35:56;23.60;99.90
19652;DHT22;9974;52.146;14.668;2023-07-20T14:38:22;24.00;99.90
19652;DHT22;9974;52.146;14.668;2023-07-20T14:40:48;24.50;99.90
19652;DHT22;9974;52.146;14.668;2023-07-20T14:43:13;24.40;99.90
19652;DHT22;9974;52.146;14.668;2023-07-20T14:45:40;24.10;99.90
19652;DHT22;9974;52.146;14.668;2023-07-20T14:48:06;24.00;99.90
19652;DHT22;9974;52.146;14.668;2023-07-20T14:50:32;23.90;99.90
19652;DHT22;9974;52.146;14.668;2023-07-20T14:52:58;23.90;99.90
19652;DHT22;9974;52.146;14.668;2023-07-20T14:57:50;23.60;99.90
19652;DHT22;9974;52.146;14.668;2023-07-20T15:00:16;24.20;99.90
19652;DHT22;9974;52.146;14.668;2023-07-20T15:05:10;23.70;99.90
19652;DHT22;9974;52.146;14.668;2023-07-20T15:10:03;23.60;99.90
19652;DHT22;9974;52.146;14.668;2023-07-20T15:12:30;23.30;99.60
19652;DHT22;9974;52.146;14.668;2023-07-20T15:15:09;23.60;99.90
19652;DHT22;9974;52.146;14.668;2023-07-20T15:17:36;23.50;94.90
19652;DHT22;9974;52.146;14.668;2023-07-20T15:20:04;23.50;95.20
19652;DHT22;9974;52.146;14.668;2023-07-20T15:22:31;23.50;99.90
19652;DHT22;9974;52.146;14.668;2023-07-20T15:24:58;23.70;99.90
19652;DHT22;9974;52.146;14.668;2023-07-20T15:27:23;23.50;99.90
19652;DHT22;9974;52.146;14.668;2023-07-20T15:34:45;23.40;99.90
19652;DHT22;9974;52.146;14.668;2023-07-20T15:39:38;23.10;99.90
19652;DHT22;9974;52.146;14.668;2023-07-20T15:42:04;23.40;99.90
19652;DHT22;9974;52.146;14.668;2023-07-20T15:44:30;23.20;99.90
19652;DHT22;9974;52.146;14.668;2023-07-20T15:46:56;23.80;99.90
19652;DHT22;9974;52.146;14.668;2023-07-20T15:49:22;23.40;98.80
19652;DHT22;9974;52.146;14.668;2023-07-20T15:51:50;23.30;99.90
19652;DHT22;9974;52.146;14.668;2023-07-20T15:54:16;23.60;99.90
19652;DHT22;9974;52.146;14.668;2023-07-20T15:56:43;23.30;96.50
19652;DHT22;9974;52.146;14.668;2023-07-20T15:59:11;23.40;96.30
19652;DHT22;9974;52.146;14.668;2023-07-20T16:01:37;23.40;99.90
19652;DHT22;9974;52.146;14.668;2023-07-20T16:04:04;23.50;99.90
19652;DHT22;9974;52.146;14.668;2023-07-20T16:06:31;23.60;99.90
19652;DHT22;9974;52.146;14.668;2023-07-20T16:08:57;23.20;99.90
19652;DHT22;9974;52.146;14.668;2023-07-20T16:11:23;23.50;99.80
19652;DHT22;9974;52.146;14.668;2023-07-20T16:13:52;23.10;99.00
19652;DHT22;9974;52.146;14.668;2023-07-20T16:16:17;23.20;98.60
19652;DHT22;9974;52.146;14.668;2023-07-20T16:21:09;23.40;97.00
19652;DHT22;9974;52.146;14.668;2023-07-20T16:23:35;23.00;99.80
19652;DHT22;9974;52.146;14.668;2023-07-20T16:26:01;23.40;99.10
19652;DHT22;9974;52.146;14.668;2023-07-20T16:30:53;23.00;99.90
19652;DHT22;9974;52.146;14.668;2023-07-20T16:35:45;23.00;99.20
19652;DHT22;9974;52.146;14.668;2023-07-20T16:38:11;22.00;99.40
19652;DHT22;9974;52.146;14.668;2023-07-20T16:40:37;22.10;99.50
19652;DHT22;9974;52.146;14.668;2023-07-20T16:45:32;22.30;98.40
19652;DHT22;9974;52.146;14.668;2023-07-20T16:50:24;22.20;98.00
19652;DHT22;9974;52.146;14.668;2023-07-20T16:52:49;22.40;97.50
19652;DHT22;9974;52.146;14.668;2023-07-20T16:57:41;22.40;97.30
19652;DHT22;9974;52.146;14.668;2023-07-20T17:00:07;22.20;96.80
19652;DHT22;9974;52.146;14.668;2023-07-20T17:02:40;22.20;96.60
19652;DHT22;9974;52.146;14.668;2023-07-20T17:05:06;22.70;96.90
19652;DHT22;9974;52.146;14.668;2023-07-20T17:10:05;22.60;96.20
19652;DHT22;9974;52.146;14.668;2023-07-20T17:12:33;22.20;97.20
19652;DHT22;9974;52.146;14.668;2023-07-20T17:24:43;21.60;96.90
19652;DHT22;9974;52.146;14.668;2023-07-20T17:29:36;22.10;96.70
19652;DHT22;9974;52.146;14.668;2023-07-20T17:32:02;22.60;97.10
19652;DHT22;9974;52.146;14.668;2023-07-20T17:34:27;21.60;97.00
19652;DHT22;9974;52.146;14.668;2023-07-20T17:36:53;21.80;97.10
19652;DHT22;9974;52.146;14.668;2023-07-20T17:39:21;22.00;94.90
19652;DHT22;9974;52.146;14.668;2023-07-20T17:41:47;21.60;96.80
19652;DHT22;9974;52.146;14.668;2023-07-20T17:44:15;21.60;96.90
19652;DHT22;9974;52.146;14.668;2023-07-20T17:46:40;22.30;96.80
19652;DHT22;9974;52.146;14.668;2023-07-20T17:49:06;21.40;96.70
19652;DHT22;9974;52.146;14.668;2023-07-20T17:51:32;22.00;96.50
19652;DHT22;9974;52.146;14.668;2023-07-20T17:53:57;21.60;97.00
19652;DHT22;9974;52.146;14.668;2023-07-20T17:56:23;21.60;97.00
19652;DHT22;9974;52.146;14.668;2023-07-20T18:11:05;20.90;93.50
19652;DHT22;9974;52.146;14.668;2023-07-20T18:33:01;21.00;91.90
19652;DHT22;9974;52.146;14.668;2023-07-20T18:55:04;20.70;98.70
19652;DHT22;9974;52.146;14.668;2023-07-20T19:02:23;20.20;97.60
19652;DHT22;9974;52.146;14.668;2023-07-20T19:12:10;19.70;96.60
19652;DHT22;9974;52.146;14.668;2023-07-20T19:48:45;19.40;99.90
19652;DHT22;9974;52.146;14.668;2023-07-20T19:51:10;19.00;99.90
19652;DHT22;9974;52.146;14.668;2023-07-20T19:53:36;18.80;99.90
19652;DHT22;9974;52.146;14.668;2023-07-20T19:56:02;19.40;99.90
19652;DHT22;9974;52.146;14.668;2023-07-20T19:58:29;18.90;99.90
19652;DHT22;9974;52.146;14.668;2023-07-20T20:00:55;19.20;99.90
19652;DHT22;9974;52.146;14.668;2023-07-20T20:03:20;18.80;99.90
19652;DHT22;9974;52.146;14.668;2023-07-20T20:13:06;18.80;97.50
19652;DHT22;9974;52.146;14.668;2023-07-20T20:15:32;19.10;99.90
19652;DHT22;9974;52.146;14.668;2023-07-20T20:17:58;19.20;99.40
19652;DHT22;9974;52.146;14.668;2023-07-20T20:20:31;18.90;99.90
19652;DHT22;9974;52.146;14.668;2023-07-20T20:23:10;18.40;99.90
19652;DHT22;9974;52.146;14.668;2023-07-20T20:25:41;18.70;99.90
19652;DHT22;9974;52.146;14.668;2023-07-20T20:28:07;18.50;99.90
19652;DHT22;9974;52.146;14.668;2023-07-20T20:30:35;18.10;99.90
19652;DHT22;9974;52.146;14.668;2023-07-20T20:33:03;18.70;99.90
19652;DHT22;9974;52.146;14.668;2023-07-20T20:35:29;18.10;99.90
19652;DHT22;9974;52.146;14.668;2023-07-20T20:37:56;18.70;99.90
19652;DHT22;9974;52.146;14.668;2023-07-20T20:40:22;18.50;99.90
19652;DHT22;9974;52.146;14.668;2023-07-20T20:42:48;18.10;99.90
19652;DHT22;9974;52.146;14.668;2023-07-20T20:45:16;18.20;99.90
19652;DHT22;9974;52.146;14.668;2023-07-20T20:47:41;17.60;99.90
19652;DHT22;9974;52.146;14.668;2023-07-20T20:50:07;18.00;99.90
19652;DHT22;9974;52.146;14.668;2023-07-20T20:52:36;18.00;99.90
19652;DHT22;9974;52.146;14.668;2023-07-20T20:55:03;17.30;99.90
19652;DHT22;9974;52.146;14.668;2023-07-20T20:57:30;17.70;99.90
19652;DHT22;9974;52.146;14.668;2023-07-20T21:02:21;17.20;99.90
19652;DHT22;9974;52.146;14.668;2023-07-20T21:04:47;17.00;99.90
19652;DHT22;9974;52.146;14.668;2023-07-20T21:07:14;17.10;99.90
19652;DHT22;9974;52.146;14.668;2023-07-20T21:09:41;17.10;99.90
19652;DHT22;9974;52.146;14.668;2023-07-20T21:12:07;17.60;99.90
19652;DHT22;9974;52.146;14.668;2023-07-20T21:16:59;17.30;99.90
19652;DHT22;9974;52.146;14.668;2023-07-20T21:19:24;17.20;99.90
19652;DHT22;9974;52.146;14.668;2023-07-20T21:21:50;17.20;99.90
19652;DHT22;9974;52.146;14.668;2023-07-20T21:24:16;17.10;99.90
19652;DHT22;9974;52.146;14.668;2023-07-20T21:26:41;16.90;99.90